Portada
METAR-TAF:

METAR-TAF

Aeroports :

Grozni, Rússia

latitud: 43-23-18N, longitud: 045-41-59E, altitud: 167 m

Observació

L'informe es va fer fa 17 minuts, a les 23:00 UTC
Vent calma
Temperatura 21°C
Humitat 94%
Pressió 1009 hPa
Visibilitat: 6000 m
Núvols disperses a una alçada de 21000 ft, Cumulonimbus.

METAR: URMG 232300Z 00000MPS 6000 SCT210CB 21/20 Q1009 R26/190060 NOSIG RMK QFE742/0990

Hora: 02:17 (23:17 UTC)

Pronòstic

L'informe es va fer fa 3 hores i 17 minuts, a les 20:00 UTC
Pronòstic vàlid del 23 a les 21 UTC al 24 a les 06 UTC
Vent 6 kt del Oest/Sud-Oest amb ràfegues de 16 kt
Visibilitat 10 km o més
Cel ennuvolat a una alçada de 3000 ft
Temporalment
l' 23 a les 21 UTC al 23 a les 24 UTC
Visibilitat: 3100 m
Cel ennuvolat a una alçada de 1100 ft
Cel ennuvolat a una alçada de 2000 ft, Cumulonimbus.
tempesta, pluja

TAF: URMG 232000Z 2321/2406 25003G08MPS 9999 BKN030 TEMPO 2321/2324 3100 -TSRA BKN011 BKN020CB

Observacions i pronòstics meteorològics de més de 4000 aeroports (METAR i TAF).

Les estacions disponibles són els punts grocs i vermells al mapa.

Posi el ratolí al punt desitjat per veure el nom de l'estació.

Feu clic per veure les observacions i els pronòstics meteorològics.

Per canviar el mapa: feu clic els botons verds amb una creu de color negre per apropar; al botó verd amb un guió per allunyar la imatge; o en les fletxes verdes per a mapes adjacents.


METAR-TAF: